Time;durP1;ratioP1;P1;durP2;ratioP2;P2;SDS_P1;SDS_P2;PMS_P1;PMS_P2;Temp;Humidity;BMP_temperature;BMP_pressure;BME280_temperature;BME280_humidity;BME280_pressure;Samples;Min_cycle;Max_cycle;Signal;HPM_P1;HPM_P2
2021/06/15 00:01:57;;;;;;;1.08;0.80;;;;;;;12.88;82.99;98704.09;4988550;28;20268;-64
2021/06/15 00:04:23;;;;;;;1.95;1.00;;;;;;;12.93;83.99;98702.22;5004178;28;20034;-64
2021/06/15 00:06:48;;;;;;;1.05;0.98;;;;;;;13.01;83.91;98694.97;5004120;28;20026;-64
2021/06/15 00:09:13;;;;;;;2.35;1.02;;;;;;;12.87;83.37;98699.75;5004136;28;20050;-64
2021/06/15 00:11:39;;;;;;;1.45;1.10;;;;;;;12.76;83.14;98699.16;5004035;28;20022;-64
2021/06/15 00:14:04;;;;;;;2.95;1.10;;;;;;;12.82;83.81;98699.00;5004072;28;20026;-64
2021/06/15 00:16:30;;;;;;;1.05;1.00;;;;;;;12.93;83.64;98699.56;5004118;28;20053;-64
2021/06/15 00:18:56;;;;;;;0.80;0.80;;;;;;;12.84;83.43;98702.47;5004073;28;20046;-65
2021/06/15 00:21:21;;;;;;;1.25;0.88;;;;;;;12.65;83.58;98695.06;5004018;28;20057;-65
2021/06/15 00:23:47;;;;;;;0.82;0.82;;;;;;;12.62;84.01;98690.75;5004017;28;20341;-65
2021/06/15 00:26:12;;;;;;;1.00;0.90;;;;;;;12.70;84.10;98693.19;5003959;28;20026;-64
2021/06/15 00:28:37;;;;;;;0.60;0.60;;;;;;;12.60;84.60;98689.91;5003964;28;20026;-64
2021/06/15 00:31:03;;;;;;;1.42;1.17;;;;;;;12.59;83.80;98689.94;5003927;28;20026;-64
2021/06/15 00:33:29;;;;;;;1.23;1.10;;;;;;;12.46;83.40;98684.13;4987495;28;20022;-64
2021/06/15 00:35:55;;;;;;;1.00;0.90;;;;;;;12.45;84.55;98679.78;4984456;28;20394;-64
2021/06/15 00:38:20;;;;;;;1.02;0.93;;;;;;;12.33;83.88;98681.84;4984420;28;20050;-64
2021/06/15 00:40:46;;;;;;;1.35;0.90;;;;;;;12.33;84.52;98682.72;4987639;28;20260;-65
2021/06/15 00:43:11;;;;;;;1.10;1.00;;;;;;;12.24;85.00;98677.66;4987890;28;20122;-65
2021/06/15 00:45:37;;;;;;;2.83;1.10;;;;;;;12.39;85.33;98672.00;4987768;28;20033;-65
2021/06/15 00:48:03;;;;;;;1.98;1.08;;;;;;;12.46;82.88;98673.56;4987684;28;20030;-65
2021/06/15 00:50:29;;;;;;;1.08;0.80;;;;;;;12.41;83.51;98671.97;4987700;28;20068;-65
2021/06/15 00:52:55;;;;;;;0.80;0.80;;;;;;;12.25;84.50;98678.53;4987627;28;20030;-65
2021/06/15 00:55:22;;;;;;;0.80;0.80;;;;;;;12.22;84.46;98679.47;4987630;28;20030;-65
2021/06/15 00:57:48;;;;;;;0.77;0.70;;;;;;;12.30;84.69;98676.63;4987480;28;20086;-65
2021/06/15 01:00:14;;;;;;;1.52;0.80;;;;;;;12.33;83.43;98669.53;4987396;28;20051;-65
2021/06/15 01:02:39;;;;;;;0.95;0.80;;;;;;;12.18;83.73;98671.69;4999378;28;20045;-65
2021/06/15 01:05:08;;;;;;;0.88;0.88;;;;;;;11.98;84.68;98673.94;5007133;28;20086;-65
2021/06/15 01:07:41;;;;;;;1.50;0.90;;;;;;;11.93;85.65;98671.41;5006853;28;20261;-65
2021/06/15 01:10:12;;;;;;;1.33;0.90;;;;;;;12.07;84.41;98674.59;5006873;28;20209;-65
2021/06/15 01:13:09;;;;;;;0.80;0.80;;;;;;;12.10;83.24;98677.16;5006778;28;20331;-65
2021/06/15 01:16:09;;;;;;;1.02;0.88;;;;;;;12.02;83.63;98681.75;5006803;28;20027;-65
2021/06/15 01:18:45;;;;;;;1.17;0.85;;;;;;;11.87;84.58;98676.81;4975380;28;20322;-64
2021/06/15 01:21:12;;;;;;;1.33;1.05;;;;;;;11.84;84.09;98676.94;5006701;28;20026;-64
2021/06/15 01:23:41;;;;;;;0.90;0.90;;;;;;;11.77;84.76;98675.31;5006584;28;20026;-64
2021/06/15 01:26:28;;;;;;;1.23;0.90;;;;;;;11.88;85.16;98673.31;5006524;28;20317;-64
2021/06/15 01:29:01;;;;;;;1.45;1.10;;;;;;;11.97;85.18;98675.72;5006567;28;20018;-64
2021/06/15 01:31:45;;;;;;;2.22;1.00;;;;;;;11.80;84.95;98674.41;5004607;28;20034;-64
2021/06/15 01:34:39;;;;;;;1.02;1.00;;;;;;;11.82;85.63;98665.53;4987027;28;20222;-64
2021/06/15 01:37:04;;;;;;;1.60;1.33;;;;;;;11.88;85.08;98661.88;4984776;28;20042;-64
2021/06/15 01:39:38;;;;;;;1.90;1.10;;;;;;;11.84;85.14;98662.88;4986848;28;20059;-64
2021/06/15 01:42:04;;;;;;;1.13;0.90;;;;;;;11.70;84.67;98665.81;4986818;28;20026;-64
2021/06/15 01:44:32;;;;;;;1.70;0.90;;;;;;;11.74;83.94;98670.09;4986735;28;20023;-64
2021/06/15 01:47:12;;;;;;;1.00;0.80;;;;;;;11.57;83.84;98661.69;4986700;28;20022;-64
2021/06/15 01:49:49;;;;;;;1.75;1.00;;;;;;;11.64;84.63;98657.19;4986529;28;20069;-64
2021/06/15 01:52:16;;;;;;;1.13;1.00;;;;;;;11.55;84.27;98658.22;4986797;28;20060;-64
2021/06/15 01:54:43;;;;;;;2.00;1.25;;;;;;;11.47;85.33;98662.81;4986558;28;20322;-64
2021/06/15 01:57:12;;;;;;;1.45;0.95;;;;;;;11.53;85.28;98654.78;4986488;28;20019;-64
2021/06/15 01:59:40;;;;;;;1.17;1.08;;;;;;;11.49;85.24;98653.13;4986294;28;20046;-64
2021/06/15 02:02:06;;;;;;;1.50;1.10;;;;;;;11.55;85.69;98658.22;4995514;28;20018;-64
2021/06/15 02:04:34;;;;;;;1.48;1.00;;;;;;;11.47;85.50;98654.91;5005625;28;20372;-64
2021/06/15 02:07:04;;;;;;;1.00;0.90;;;;;;;11.41;86.29;98657.66;5005807;28;20026;-64
2021/06/15 02:09:31;;;;;;;1.17;1.10;;;;;;;11.55;85.60;98655.59;5005717;28;20029;-65
2021/06/15 02:11:57;;;;;;;0.98;0.70;;;;;;;11.43;85.08;98653.25;5005572;28;20072;-65
2021/06/15 02:14:26;;;;;;;0.90;0.90;;;;;;;11.54;85.31;98640.69;5005680;28;20089;-65
2021/06/15 02:16:56;;;;;;;0.93;0.88;;;;;;;11.44;85.39;98654.97;5005873;28;20225;-65
2021/06/15 02:19:23;;;;;;;1.08;1.00;;;;;;;11.38;84.99;98644.56;5005533;28;20022;-65
2021/06/15 02:21:54;;;;;;;1.15;1.00;;;;;;;11.35;85.07;98639.38;5005455;28;20014;-65
2021/06/15 02:24:24;;;;;;;3.53;1.00;;;;;;;11.48;84.88;98640.81;5005541;28;20034;-65
2021/06/15 02:26:50;;;;;;;6.35;1.08;;;;;;;11.39;84.54;98642.81;5005454;28;20022;-65
2021/06/15 02:29:16;;;;;;;0.98;0.90;;;;;;;11.24;85.09;98641.38;5005578;28;20030;-65
2021/06/15 02:31:51;;;;;;;0.77;0.77;;;;;;;11.18;84.70;98640.63;4999461;28;20054;-65
2021/06/15 02:34:21;;;;;;;4.18;1.00;;;;;;;11.22;85.34;98643.16;4986166;28;20318;-65
2021/06/15 02:36:48;;;;;;;2.72;0.90;;;;;;;11.22;83.55;98648.44;4986052;28;20018;-65
2021/06/15 02:39:20;;;;;;;1.23;0.90;;;;;;;11.00;84.75;98655.06;4985729;28;20049;-65
2021/06/15 02:41:45;;;;;;;1.08;0.88;;;;;;;11.03;85.37;98647.09;4985782;28;20122;-65
2021/06/15 02:44:18;;;;;;;0.85;0.85;;;;;;;11.04;85.84;98654.09;4985658;28;20027;-64
2021/06/15 02:46:46;;;;;;;1.65;1.02;;;;;;;11.03;86.16;98652.38;4985854;28;20027;-64
2021/06/15 02:49:18;;;;;;;2.33;1.27;;;;;;;11.09;85.77;98646.97;4985553;28;20318;-64
2021/06/15 02:51:56;;;;;;;;;;;;;;;11.02;84.88;98639.22;4985911;28;20033;-64
2021/06/15 02:54:39;;;;;;;3.03;1.38;;;;;;;11.08;85.29;98639.97;4985475;28;19905;-64
2021/06/15 02:57:04;;;;;;;;;;;;;;;11.00;85.34;98647.16;4985968;28;20154;-64
2021/06/15 02:59:29;;;;;;;2.35;0.90;;;;;;;11.01;84.91;98645.41;4985260;28;20205;-64
2021/06/15 03:01:55;;;;;;;1.27;1.08;;;;;;;10.96;85.38;98642.84;4992212;28;20018;-64
2021/06/15 03:04:21;;;;;;;3.22;1.17;;;;;;;10.85;85.25;98636.94;5004775;28;20265;-64
2021/06/15 03:06:47;;;;;;;2.15;0.93;;;;;;;10.82;85.23;98647.53;5004750;28;20026;-64
2021/06/15 03:09:14;;;;;;;1.00;1.00;;;;;;;10.86;85.10;98646.59;5004714;28;20133;-64
2021/06/15 03:11:57;;;;;;;0.88;0.80;;;;;;;10.97;84.44;98663.03;5004364;28;20028;-64
2021/06/15 03:14:28;;;;;;;2.78;1.15;;;;;;;10.77;85.20;98666.06;5004676;28;20029;-64
2021/06/15 03:16:57;;;;;;;2.55;1.10;;;;;;;10.71;85.76;98665.31;5004691;28;20034;-64
2021/06/15 03:19:31;;;;;;;1.00;0.90;;;;;;;10.75;85.48;98673.13;5004585;28;20030;-64
2021/06/15 03:22:26;;;;;;;1.58;1.25;;;;;;;10.77;86.68;98675.72;5004611;28;20029;-64
2021/06/15 03:25:02;;;;;;;0.85;0.85;;;;;;;10.80;85.11;98675.66;5003001;28;20038;-64
2021/06/15 03:27:32;;;;;;;0.90;0.90;;;;;;;10.78;84.76;98672.19;5004493;28;20090;-64
2021/06/15 03:30:00;;;;;;;0.88;0.88;;;;;;;10.66;84.83;98668.03;5004470;28;20034;-64
2021/06/15 03:32:27;;;;;;;1.00;0.90;;;;;;;10.77;85.30;98670.47;5002403;28;20030;-64
2021/06/15 03:34:55;;;;;;;2.13;0.88;;;;;;;10.82;85.00;98668.59;5004194;28;20022;-64
2021/06/15 03:37:24;;;;;;;1.13;0.80;;;;;;;10.69;85.37;98677.63;5004400;28;20053;-64
2021/06/15 03:39:51;;;;;;;1.38;1.00;;;;;;;10.67;85.40;98679.44;5004417;28;20048;-64
2021/06/15 03:42:22;;;;;;;0.85;0.85;;;;;;;10.71;85.36;98681.09;5004352;28;20085;-64
2021/06/15 03:44:52;;;;;;;1.48;1.08;;;;;;;10.76;85.48;98679.25;5004447;28;20034;-64
2021/06/15 03:47:23;;;;;;;1.75;0.98;;;;;;;10.66;84.79;98678.56;5004579;28;20030;-64
2021/06/15 03:49:50;;;;;;;0.98;0.98;;;;;;;10.54;85.46;98673.50;5004580;28;20089;-64
2021/06/15 03:52:16;;;;;;;1.38;1.10;;;;;;;10.59;85.60;98686.59;5004310;28;20042;-64
2021/06/15 03:54:44;;;;;;;2.08;1.00;;;;;;;10.71;84.70;98675.84;5004327;28;20089;-64
2021/06/15 03:57:10;;;;;;;1.10;0.80;;;;;;;10.68;84.76;98675.91;5004178;28;20286;-64
2021/06/15 03:59:37;;;;;;;0.75;0.70;;;;;;;10.74;85.56;98675.78;5004073;28;20034;-64
2021/06/15 04:02:07;;;;;;;1.00;0.90;;;;;;;10.77;86.04;98676.59;4995821;28;20053;-64
2021/06/15 04:04:39;;;;;;;1.98;1.00;;;;;;;10.87;85.40;98672.00;4985007;28;20072;-65
2021/06/15 04:07:07;;;;;;;3.33;0.88;;;;;;;10.81;85.29;98672.13;4984792;28;20027;-65
2021/06/15 04:09:36;;;;;;;1.08;0.80;;;;;;;10.81;85.55;98677.38;4984934;28;20033;-65
2021/06/15 04:12:02;;;;;;;0.75;0.70;;;;;;;10.89;85.28;98680.75;4984636;28;20086;-64
2021/06/15 04:14:28;;;;;;;2.67;1.20;;;;;;;10.75;85.57;98677.50;4986000;28;20229;-64
2021/06/15 04:16:55;;;;;;;1.83;1.05;;;;;;;10.76;85.38;98674.00;4988322;28;20022;-64
2021/06/15 04:19:26;;;;;;;1.35;0.80;;;;;;;10.81;85.64;98682.66;4988356;28;20093;-64
2021/06/15 04:21:54;;;;;;;2.47;1.10;;;;;;;10.83;86.12;98681.72;4988358;28;20042;-64
2021/06/15 04:24:24;;;;;;;1.30;1.00;;;;;;;10.99;86.54;98671.75;4988218;28;20405;-64
2021/06/15 04:26:51;;;;;;;1.25;0.90;;;;;;;11.09;85.43;98673.31;4988702;28;20022;-64
2021/06/15 04:29:17;;;;;;;1.05;1.00;;;;;;;11.22;83.88;98679.16;4988130;28;20032;-64
2021/06/15 04:31:45;;;;;;;1.02;0.90;;;;;;;12.01;81.21;98673.88;4993267;28;20089;-64
2021/06/15 04:34:14;;;;;;;1.60;1.00;;;;;;;13.10;77.94;98674.50;5007546;28;20026;-64
2021/06/15 04:36:41;;;;;;;0.90;0.70;;;;;;;14.00;74.16;98679.63;5007476;28;20050;-64
2021/06/15 04:39:12;;;;;;;0.95;0.70;;;;;;;14.62;72.09;98681.06;5007438;28;20253;-64
2021/06/15 04:42:00;;;;;;;0.98;0.88;;;;;;;15.27;69.45;98682.22;5007718;28;20029;-65
2021/06/15 04:44:29;;;;;;;2.63;0.93;;;;;;;15.89;67.52;98678.06;5007617;28;20092;-65
2021/06/15 04:46:58;;;;;;;0.82;0.70;;;;;;;16.22;65.84;98683.78;5007327;28;20022;-65
2021/06/15 04:49:35;;;;;;;1.83;0.80;;;;;;;16.40;64.48;98686.56;5007340;28;20045;-65
2021/06/15 04:52:03;;;;;;;1.20;0.80;;;;;;;16.83;63.91;98690.91;5007189;28;20085;-65
2021/06/15 04:54:35;;;;;;;0.63;0.63;;;;;;;17.36;62.07;98688.53;5007118;28;20029;-65
2021/06/15 04:57:09;;;;;;;1.42;0.75;;;;;;;17.87;61.04;98680.84;5007086;28;20026;-65
2021/06/15 04:59:37;;;;;;;2.25;0.70;;;;;;;18.30;60.19;98689.34;4990045;28;20098;-65
2021/06/15 05:02:04;;;;;;;0.60;0.60;;;;;;;18.60;59.71;98685.16;4987561;28;20049;-65
2021/06/15 05:04:30;;;;;;;2.40;0.70;;;;;;;18.72;59.40;98692.53;4987524;28;20222;-65
2021/06/15 05:06:56;;;;;;;1.52;0.82;;;;;;;18.87;59.62;98696.22;4987465;28;20026;-65
2021/06/15 05:09:25;;;;;;;1.25;0.80;;;;;;;19.23;57.53;98688.97;4987432;28;20019;-65
2021/06/15 05:11:53;;;;;;;3.13;1.00;;;;;;;19.63;56.18;98685.03;4987499;28;20022;-65
2021/06/15 05:14:22;;;;;;;6.35;1.10;;;;;;;19.91;56.76;98696.81;4987287;28;20341;-65
2021/06/15 05:16:48;;;;;;;1.58;0.75;;;;;;;20.22;55.82;98690.63;4987328;28;20314;-65
2021/06/15 05:19:13;;;;;;;0.80;0.70;;;;;;;20.27;53.97;98694.75;4987241;28;20018;-65
2021/06/15 05:21:41;;;;;;;2.72;0.90;;;;;;;20.25;55.11;98699.31;4987179;28;20126;-65
2021/06/15 05:24:43;;;;;;;4.80;1.02;;;;;;;20.62;56.21;98696.25;4987178;28;20026;-65
2021/06/15 05:27:08;;;;;;;;;;;;;;;21.13;55.13;98695.84;4987510;28;20022;-65
2021/06/15 05:29:34;;;;;;;2.78;0.80;;;;;;;21.40;54.60;98703.13;5003318;28;19928;-65
2021/06/15 05:32:00;;;;;;;1.60;0.80;;;;;;;21.67;53.48;98701.44;5006398;28;20077;-65
2021/06/15 05:34:26;;;;;;;2.60;0.90;;;;;;;21.29;54.92;98710.03;5006655;28;20026;-65
2021/06/15 05:36:51;;;;;;;1.88;0.80;;;;;;;21.12;56.93;98702.16;5006134;28;20081;-65
2021/06/15 05:39:17;;;;;;;1.65;1.00;;;;;;;21.72;55.04;98704.66;5006594;28;20361;-65
2021/06/15 05:41:42;;;;;;;1.20;0.80;;;;;;;22.20;54.40;98712.28;5006332;28;20073;-65
2021/06/15 05:44:07;;;;;;;0.68;0.63;;;;;;;22.59;53.86;98720.47;5006258;28;20033;-65
2021/06/15 05:46:33;;;;;;;2.72;1.30;;;;;;;23.04;51.44;98717.38;5006237;28;20304;-65
2021/06/15 05:48:58;;;;;;;0.80;0.77;;;;;;;23.12;52.21;98715.00;5006174;28;20128;-65
2021/06/15 05:51:23;;;;;;;2.38;1.10;;;;;;;22.99;53.51;98730.22;5006105;28;20222;-65
2021/06/15 05:53:49;;;;;;;5.60;1.10;;;;;;;23.35;51.05;98717.03;5006084;28;20022;-65
2021/06/15 05:56:14;;;;;;;1.80;0.93;;;;;;;23.41;51.58;98721.94;4988642;28;20030;-65
2021/06/15 05:58:40;;;;;;;3.88;1.00;;;;;;;23.49;51.68;98724.09;4996897;28;20046;-65
2021/06/15 06:01:05;;;;;;;1.20;1.00;;;;;;;23.90;52.58;98722.91;4986704;28;20033;-65
2021/06/15 06:03:35;;;;;;;2.88;1.10;;;;;;;24.25;50.38;98718.56;4986400;28;20310;-65
2021/06/15 06:08:45;;;;;;;1.58;0.90;;;;;;;24.06;48.50;98715.47;4986431;28;20021;-64
2021/06/15 06:11:10;;;;;;;2.75;0.93;;;;;;;23.65;53.10;98714.84;4986290;28;20054;-64
2021/06/15 06:13:36;;;;;;;1.58;0.85;;;;;;;24.73;50.27;98728.41;4986144;28;20027;-64
2021/06/15 06:16:05;;;;;;;1.27;0.82;;;;;;;25.33;49.94;98725.59;4968926;28;20057;-64
2021/06/15 06:18:32;;;;;;;2.05;1.05;;;;;;;25.26;49.47;98719.81;4986351;28;20069;-64
2021/06/15 06:20:57;;;;;;;1.85;0.95;;;;;;;25.42;48.78;98721.31;4986164;28;20050;-64
2021/06/15 06:23:23;;;;;;;1.80;0.80;;;;;;;24.79;51.93;98725.25;4985989;28;20030;-64
2021/06/15 06:25:48;;;;;;;2.17;0.80;;;;;;;25.84;48.38;98717.97;4986022;28;20025;-64
2021/06/15 06:28:14;;;;;;;3.60;1.15;;;;;;;26.01;48.67;98715.69;4993410;28;20089;-64
2021/06/15 06:30:39;;;;;;;1.77;1.05;;;;;;;26.26;46.69;98725.34;5005346;28;20094;-64
2021/06/15 06:33:05;;;;;;;1.38;0.90;;;;;;;26.62;46.20;98730.44;5005240;28;20093;-64
2021/06/15 06:35:30;;;;;;;1.35;0.90;;;;;;;26.36;48.24;98729.88;5005305;28;20029;-64
2021/06/15 06:37:56;;;;;;;3.33;0.90;;;;;;;26.83;45.52;98728.66;5004480;28;20081;-64
2021/06/15 06:40:21;;;;;;;1.23;0.80;;;;;;;27.19;45.94;98728.25;5005182;28;20018;-64
2021/06/15 06:42:47;;;;;;;3.60;1.10;;;;;;;27.52;43.21;98725.38;5005379;28;20018;-64
2021/06/15 06:45:13;;;;;;;2.00;1.00;;;;;;;27.04;45.30;98730.41;5005110;28;20068;-64
2021/06/15 06:47:38;;;;;;;2.50;1.05;;;;;;;27.76;41.82;98722.41;5005078;28;20022;-64
2021/06/15 06:50:05;;;;;;;2.13;1.15;;;;;;;28.15;41.18;98730.59;5005288;28;20022;-64
2021/06/15 06:52:31;;;;;;;2.08;0.80;;;;;;;27.70;45.09;98722.94;5004868;28;20025;-64
2021/06/15 06:54:56;;;;;;;2.20;1.00;;;;;;;27.31;44.70;98732.66;5004951;28;20046;-64
2021/06/15 06:57:22;;;;;;;6.72;1.10;;;;;;;27.97;44.12;98723.25;5004192;28;20128;-64
2021/06/15 06:59:47;;;;;;;1.63;1.10;;;;;;;28.11;44.84;98729.16;4985346;28;20269;-64
2021/06/15 07:02:13;;;;;;;1.88;1.27;;;;;;;27.25;44.73;98738.59;4985378;28;20070;-64
2021/06/15 07:04:38;;;;;;;2.13;1.20;;;;;;;28.05;43.43;98736.94;4985321;28;20022;-64
2021/06/15 07:07:04;;;;;;;1.20;0.80;;;;;;;28.57;43.97;98737.59;4985313;28;20022;-64
2021/06/15 07:09:29;;;;;;;1.38;0.90;;;;;;;27.99;41.96;98730.22;4985268;28;20038;-64
2021/06/15 07:11:55;;;;;;;1.23;0.82;;;;;;;28.57;42.23;98737.59;4985166;28;20022;-64
2021/06/15 07:14:20;;;;;;;2.85;1.00;;;;;;;29.04;39.24;98741.38;4985308;28;20027;-64
2021/06/15 07:16:45;;;;;;;4.72;1.08;;;;;;;28.73;42.41;98737.91;4985492;28;20023;-64
2021/06/15 07:19:11;;;;;;;1.58;1.10;;;;;;;28.59;39.88;98751.84;4985145;28;20046;-64
2021/06/15 07:21:36;;;;;;;3.08;0.88;;;;;;;28.51;40.94;98754.38;4985141;28;20382;-64
2021/06/15 07:24:02;;;;;;;2.00;0.90;;;;;;;28.61;41.54;98754.44;4985056;28;20023;-64
2021/06/15 07:26:27;;;;;;;1.42;0.90;;;;;;;28.29;40.79;98760.00;4985055;28;20029;-64
2021/06/15 07:28:53;;;;;;;2.50;1.20;;;;;;;28.11;42.24;98756.22;4999751;28;20018;-65
2021/06/15 07:31:18;;;;;;;1.88;1.10;;;;;;;28.51;40.41;98751.69;5004495;28;20218;-65
2021/06/15 07:33:43;;;;;;;2.13;1.02;;;;;;;28.15;40.91;98752.25;5004450;28;20246;-65
2021/06/15 07:36:09;;;;;;;1.30;0.90;;;;;;;27.55;42.58;98749.44;5004420;28;20094;-64
2021/06/15 07:38:34;;;;;;;3.58;1.42;;;;;;;28.10;41.97;98754.53;5004408;28;20026;-64
2021/06/15 07:41:02;;;;;;;2.38;1.00;;;;;;;28.82;40.43;98753.31;5004395;28;20033;-64
2021/06/15 07:43:28;;;;;;;2.03;1.27;;;;;;;29.97;38.47;98759.59;5004603;28;20022;-65
2021/06/15 07:45:54;;;;;;;1.80;1.05;;;;;;;30.27;39.22;98755.78;5004290;28;20026;-65
2021/06/15 07:48:19;;;;;;;2.67;1.33;;;;;;;31.15;37.11;98755.00;5005588;28;20054;-65
2021/06/15 07:50:45;;;;;;;1.30;0.93;;;;;;;29.56;36.51;98753.66;5008366;28;20303;-65
2021/06/15 07:53:10;;;;;;;3.08;1.13;;;;;;;30.18;37.05;98752.09;5008219;28;20034;-64
2021/06/15 07:55:36;;;;;;;2.97;1.20;;;;;;;29.53;38.29;98756.66;5008247;28;20222;-65
2021/06/15 07:58:01;;;;;;;3.55;1.10;;;;;;;30.47;36.26;98757.44;5000159;28;20373;-65
2021/06/15 08:00:27;;;;;;;4.22;1.23;;;;;;;29.92;35.57;98745.59;4988565;28;20051;-65
2021/06/15 08:02:52;;;;;;;1.83;1.00;;;;;;;30.85;37.73;98746.34;4988636;28;20073;-65
2021/06/15 08:05:18;;;;;;;1.67;1.10;;;;;;;31.49;35.23;98749.72;4988651;28;20318;-64
2021/06/15 08:07:49;;;;;;;3.38;1.30;;;;;;;31.64;35.20;98745.44;4988786;28;20033;-64
2021/06/15 08:10:18;;;;;;;2.35;1.10;;;;;;;31.53;35.08;98747.53;4988819;28;20029;-64
2021/06/15 08:12:43;;;;;;;2.67;1.15;;;;;;;31.46;37.44;98741.88;4988591;28;20314;-64
2021/06/15 08:15:09;;;;;;;2.72;1.08;;;;;;;32.05;34.65;98747.41;4988395;28;20133;-65
2021/06/15 08:17:34;;;;;;;1.33;0.93;;;;;;;32.15;33.90;98734.56;4988604;28;20023;-65
2021/06/15 08:20:00;;;;;;;2.22;0.95;;;;;;;32.21;32.97;98739.34;4988566;28;20086;-65
2021/06/15 08:22:26;;;;;;;2.25;1.17;;;;;;;32.34;34.32;98739.81;4988252;28;20022;-65
2021/06/15 08:24:51;;;;;;;2.40;1.10;;;;;;;31.64;30.25;98737.25;4988253;28;20026;-65
2021/06/15 08:27:17;;;;;;;1.83;1.08;;;;;;;32.01;32.31;98740.59;4990699;28;20262;-65
2021/06/15 08:29:42;;;;;;;1.95;1.00;;;;;;;32.00;32.42;98729.84;4988381;28;20093;-65
2021/06/15 08:32:08;;;;;;;3.70;0.90;;;;;;;32.28;31.70;98740.41;4988003;28;20027;-65
2021/06/15 08:34:35;;;;;;;1.20;1.02;;;;;;;31.89;31.95;98727.44;4988096;28;20146;-65
2021/06/15 08:37:02;;;;;;;3.97;1.20;;;;;;;31.93;32.70;98729.66;4988037;28;20030;-65
2021/06/15 08:39:27;;;;;;;1.65;1.02;;;;;;;31.78;33.97;98725.78;4988038;28;20023;-64
2021/06/15 08:41:52;;;;;;;1.92;0.80;;;;;;;32.43;33.81;98727.91;4987926;28;20025;-64
2021/06/15 08:44:18;;;;;;;2.70;1.00;;;;;;;31.75;33.20;98725.25;4987917;28;20089;-64
2021/06/15 08:46:45;;;;;;;2.03;1.10;;;;;;;32.06;31.65;98727.34;4987820;28;20029;-64
2021/06/15 08:49:11;;;;;;;3.67;1.35;;;;;;;32.34;35.32;98720.72;4987804;28;20033;-65
2021/06/15 08:51:37;;;;;;;3.30;1.08;;;;;;;33.14;31.85;98722.84;4987673;28;20022;-65
2021/06/15 08:54:06;;;;;;;1.88;1.10;;;;;;;33.46;33.68;98727.47;4987748;28;20073;-65
2021/06/15 08:56:34;;;;;;;2.42;1.05;;;;;;;33.67;33.14;98725.94;4987687;28;20273;-65
2021/06/15 08:59:18;;;;;;;2.25;1.00;;;;;;;32.32;32.66;98735.47;4995493;28;20207;-65
2021/06/15 09:01:52;;;;;;;2.95;1.10;;;;;;;32.89;32.10;98735.59;4987267;28;20019;-65
2021/06/15 09:04:18;;;;;;;1.65;0.90;;;;;;;32.91;32.83;98744.47;4987559;28;20049;-65
2021/06/15 09:06:43;;;;;;;1.50;1.10;;;;;;;32.58;32.63;98730.84;4987761;28;20365;-65
2021/06/15 09:09:10;;;;;;;3.55;1.02;;;;;;;33.48;32.91;98736.34;4987413;28;20209;-65
2021/06/15 09:11:48;;;;;;;1.70;1.00;;;;;;;33.50;32.37;98735.16;4987323;28;20019;-65
2021/06/15 09:14:14;;;;;;;2.95;1.10;;;;;;;32.99;31.69;98727.25;4987388;28;20030;-65
2021/06/15 09:16:47;;;;;;;1.75;1.05;;;;;;;32.91;34.04;98730.84;4987258;28;20023;-65
2021/06/15 09:19:24;;;;;;;2.53;1.00;;;;;;;32.72;32.24;98722.91;4987302;28;20035;-65
2021/06/15 09:21:52;;;;;;;1.70;1.00;;;;;;;33.29;33.16;98725.75;4987197;28;20021;-65
2021/06/15 09:24:23;;;;;;;3.85;1.20;;;;;;;33.45;32.81;98726.66;4987413;28;20061;-65
2021/06/15 09:27:07;;;;;;;1.38;0.95;;;;;;;32.68;30.12;98721.50;4987456;28;20069;-65
2021/06/15 09:29:40;;;;;;;1.90;1.10;;;;;;;32.95;29.53;98732.19;4987100;28;20030;-65
2021/06/15 09:32:07;;;;;;;1.88;1.10;;;;;;;33.04;31.19;98733.91;4986996;28;20086;-65
2021/06/15 09:34:33;;;;;;;2.40;1.27;;;;;;;31.37;31.87;98721.03;4986996;28;20129;-65
2021/06/15 09:37:02;;;;;;;3.35;1.00;;;;;;;31.39;30.90;98715.44;4986967;28;20026;-65
2021/06/15 09:39:30;;;;;;;1.98;1.08;;;;;;;31.71;31.73;98713.84;4986860;28;20078;-64
2021/06/15 09:41:55;;;;;;;3.58;1.13;;;;;;;30.57;31.86;98720.19;4986926;28;20065;-64
2021/06/15 09:44:25;;;;;;;1.33;0.88;;;;;;;32.01;32.72;98713.34;5006037;28;20046;-64
2021/06/15 09:46:53;;;;;;;2.75;1.20;;;;;;;31.31;30.28;98721.66;5006256;28;20313;-64
2021/06/15 09:49:39;;;;;;;2.67;1.02;;;;;;;31.47;31.31;98716.38;4986717;28;20061;-64
2021/06/15 09:52:15;;;;;;;1.10;0.82;;;;;;;32.06;30.93;98713.75;4986588;28;20348;-64
2021/06/15 09:54:52;;;;;;;2.05;1.20;;;;;;;32.07;31.03;98707.28;4986635;28;20036;-65
2021/06/15 09:57:20;;;;;;;1.45;0.88;;;;;;;32.43;30.64;98708.81;4986547;28;20030;-64
2021/06/15 10:00:08;;;;;;;0.70;0.63;;;;;;;32.55;30.01;98715.69;4986431;28;20211;-64
2021/06/15 10:02:33;;;;;;;1.48;0.98;;;;;;;32.65;29.72;98716.38;4986391;28;20025;-64
2021/06/15 10:05:04;;;;;;;1.85;1.10;;;;;;;33.02;31.19;98714.13;4986407;28;20058;-64
2021/06/15 10:07:31;;;;;;;2.22;0.88;;;;;;;32.46;31.09;98711.22;4986406;28;20036;-64
2021/06/15 10:09:58;;;;;;;1.73;0.90;;;;;;;33.05;31.75;98719.25;4986321;28;20035;-65
2021/06/15 10:12:25;;;;;;;2.30;0.82;;;;;;;33.34;30.03;98702.38;4986165;28;20054;-65
2021/06/15 10:14:56;;;;;;;1.40;0.63;;;;;;;33.73;29.44;98699.81;4986242;28;20035;-65
2021/06/15 10:17:23;;;;;;;1.38;0.80;;;;;;;33.54;28.29;98697.47;4989876;28;20024;-65
2021/06/15 10:19:49;;;;;;;1.35;0.75;;;;;;;33.02;29.25;98697.75;5005843;28;20097;-65
2021/06/15 10:22:15;;;;;;;1.45;1.00;;;;;;;33.09;29.47;98701.50;5005558;28;20022;-64
2021/06/15 10:24:41;;;;;;;1.60;0.70;;;;;;;31.97;30.11;98692.91;5005747;28;20089;-65
2021/06/15 10:27:09;;;;;;;1.10;0.73;;;;;;;32.68;32.67;98694.25;5005759;28;20041;-65
2021/06/15 10:29:36;;;;;;;1.17;0.82;;;;;;;33.20;28.34;98696.75;5005431;28;20032;-65
2021/06/15 10:32:17;;;;;;;1.25;0.80;;;;;;;32.59;31.17;98700.69;5005309;28;20321;-65
2021/06/15 10:35:12;;;;;;;2.70;0.85;;;;;;;32.79;28.41;98701.28;5005319;28;20018;-65
2021/06/15 10:37:39;;;;;;;1.02;0.90;;;;;;;32.46;28.75;98703.03;5005581;28;20093;-65
2021/06/15 10:40:14;;;;;;;0.93;0.70;;;;;;;32.65;28.58;98694.59;5005226;28;20369;-64
2021/06/15 10:42:41;;;;;;;0.65;0.65;;;;;;;32.46;29.90;98699.47;4996883;28;20034;-64
2021/06/15 10:45:12;;;;;;;1.55;0.80;;;;;;;32.50;27.54;98706.31;4985705;28;20027;-64
2021/06/15 10:48:01;;;;;;;0.80;0.70;;;;;;;31.84;27.42;98702.53;4985634;28;20074;-64
2021/06/15 10:50:44;;;;;;;1.63;0.90;;;;;;;31.31;31.52;98694.47;4985529;28;20030;-64
2021/06/15 10:53:11;;;;;;;1.33;0.70;;;;;;;32.51;29.11;98697.97;4985489;28;20033;-64
2021/06/15 10:55:44;;;;;;;1.55;0.70;;;;;;;32.63;29.40;98698.50;4985498;28;20022;-64
2021/06/15 10:58:10;;;;;;;1.25;0.65;;;;;;;32.88;30.30;98695.72;4985609;28;20033;-64
2021/06/15 11:00:46;;;;;;;2.40;0.90;;;;;;;32.60;30.16;98696.97;4985188;28;20238;-64
2021/06/15 11:03:17;;;;;;;2.72;0.80;;;;;;;32.98;28.75;98693.69;4985379;28;20026;-64
2021/06/15 11:05:48;;;;;;;1.83;0.80;;;;;;;32.89;29.06;98697.41;4985571;28;20033;-64
2021/06/15 11:08:22;;;;;;;1.13;0.70;;;;;;;32.88;28.19;98695.72;4985633;28;20191;-64
2021/06/15 11:10:58;;;;;;;3.15;0.70;;;;;;;32.43;26.70;98694.34;4985322;28;20226;-64
2021/06/15 11:13:47;;;;;;;1.13;0.82;;;;;;;32.20;30.52;98677.72;4998797;28;20352;-64
2021/06/15 11:16:34;;;;;;;0.82;0.70;;;;;;;32.56;29.92;98687.44;5004659;28;20022;-64
2021/06/15 11:19:09;;;;;;;1.50;0.80;;;;;;;31.69;28.83;98688.63;5004654;28;20033;-64
2021/06/15 11:21:54;;;;;;;2.22;0.90;;;;;;;32.09;28.05;98688.91;5004616;28;20026;-64
2021/06/15 11:24:25;;;;;;;1.08;0.70;;;;;;;32.77;28.83;98679.63;4993770;28;20080;-64
2021/06/15 11:26:55;;;;;;;1.40;0.73;;;;;;;32.78;28.84;98688.66;5004613;28;20025;-64
2021/06/15 11:29:35;;;;;;;1.38;0.80;;;;;;;32.51;30.03;98676.16;5004524;28;20085;-64
2021/06/15 11:32:22;;;;;;;1.00;0.80;;;;;;;31.70;29.46;98679.44;4987129;28;20023;-64
2021/06/15 11:34:54;;;;;;;1.90;0.90;;;;;;;31.70;32.41;98675.88;5004500;28;20022;-64
2021/06/15 11:37:33;;;;;;;1.75;0.77;;;;;;;30.86;30.89;98682.81;5004436;28;20321;-65
2021/06/15 11:40:29;;;;;;;3.53;0.80;;;;;;;30.75;34.05;98674.91;5004688;28;20030;-65
2021/06/15 11:43:11;;;;;;;1.77;0.80;;;;;;;31.28;31.63;98673.03;4992280;28;20030;-65
2021/06/15 11:45:40;;;;;;;1.05;0.80;;;;;;;31.03;33.20;98668.34;4984933;28;20222;-64
2021/06/15 11:48:19;;;;;;;0.77;0.77;;;;;;;31.06;33.01;98657.16;4984892;28;20022;-64